sensor_id;sensor_type;location;lat;lon;timestamp;temperature;humidity
336;DHT22;156;48.738;9.228;2022-11-18T00:02:14;7.80;99.90
336;DHT22;156;48.738;9.228;2022-11-18T00:04:41;7.80;99.90
336;DHT22;156;48.738;9.228;2022-11-18T00:07:08;7.80;99.90
336;DHT22;156;48.738;9.228;2022-11-18T00:09:35;7.90;99.90
336;DHT22;156;48.738;9.228;2022-11-18T00:12:02;7.90;99.90
336;DHT22;156;48.738;9.228;2022-11-18T00:14:48;7.90;99.90
336;DHT22;156;48.738;9.228;2022-11-18T00:17:15;7.90;99.90
336;DHT22;156;48.738;9.228;2022-11-18T00:19:42;7.90;99.90
336;DHT22;156;48.738;9.228;2022-11-18T00:22:11;7.90;99.90
336;DHT22;156;48.738;9.228;2022-11-18T00:24:39;7.90;99.90
336;DHT22;156;48.738;9.228;2022-11-18T00:27:06;7.90;99.90
336;DHT22;156;48.738;9.228;2022-11-18T00:29:33;7.90;99.90
336;DHT22;156;48.738;9.228;2022-11-18T00:32:01;7.90;99.90
336;DHT22;156;48.738;9.228;2022-11-18T00:34:28;8.00;99.90
336;DHT22;156;48.738;9.228;2022-11-18T00:36:55;8.00;99.90
336;DHT22;156;48.738;9.228;2022-11-18T00:39:21;8.10;99.90
336;DHT22;156;48.738;9.228;2022-11-18T00:41:48;8.10;99.90
336;DHT22;156;48.738;9.228;2022-11-18T00:44:33;8.10;99.90
336;DHT22;156;48.738;9.228;2022-11-18T00:47:02;8.10;99.90
336;DHT22;156;48.738;9.228;2022-11-18T00:49:29;8.00;99.90
336;DHT22;156;48.738;9.228;2022-11-18T00:51:56;8.00;99.90
336;DHT22;156;48.738;9.228;2022-11-18T00:54:23;7.90;99.90
336;DHT22;156;48.738;9.228;2022-11-18T00:56:49;7.90;99.90
336;DHT22;156;48.738;9.228;2022-11-18T00:59:16;7.90;99.90
336;DHT22;156;48.738;9.228;2022-11-18T01:01:43;7.80;99.90
336;DHT22;156;48.738;9.228;2022-11-18T01:04:11;7.70;99.90
336;DHT22;156;48.738;9.228;2022-11-18T01:06:38;7.70;99.90
336;DHT22;156;48.738;9.228;2022-11-18T01:09:05;7.70;99.90
336;DHT22;156;48.738;9.228;2022-11-18T01:11:32;7.70;99.90
336;DHT22;156;48.738;9.228;2022-11-18T01:14:17;7.70;99.90
336;DHT22;156;48.738;9.228;2022-11-18T01:16:44;7.70;99.90
336;DHT22;156;48.738;9.228;2022-11-18T01:19:17;7.70;99.90
336;DHT22;156;48.738;9.228;2022-11-18T01:21:43;7.70;99.90
336;DHT22;156;48.738;9.228;2022-11-18T01:24:11;7.60;99.90
336;DHT22;156;48.738;9.228;2022-11-18T01:26:38;7.60;99.90
336;DHT22;156;48.738;9.228;2022-11-18T01:29:04;7.70;99.90
336;DHT22;156;48.738;9.228;2022-11-18T01:31:31;7.60;99.90
336;DHT22;156;48.738;9.228;2022-11-18T01:33:58;7.60;99.90
336;DHT22;156;48.738;9.228;2022-11-18T01:36:27;7.60;99.90
336;DHT22;156;48.738;9.228;2022-11-18T01:38:54;7.60;99.90
336;DHT22;156;48.738;9.228;2022-11-18T01:41:23;7.60;99.90
336;DHT22;156;48.738;9.228;2022-11-18T01:43:52;7.60;99.90
336;DHT22;156;48.738;9.228;2022-11-18T01:46:21;7.60;99.90
336;DHT22;156;48.738;9.228;2022-11-18T01:48:51;7.50;99.90
336;DHT22;156;48.738;9.228;2022-11-18T01:51:23;7.50;99.90
336;DHT22;156;48.738;9.228;2022-11-18T01:53:57;7.50;99.90
336;DHT22;156;48.738;9.228;2022-11-18T01:56:32;7.60;99.90
336;DHT22;156;48.738;9.228;2022-11-18T01:59:05;7.50;99.90
336;DHT22;156;48.738;9.228;2022-11-18T02:01:33;7.50;99.90
336;DHT22;156;48.738;9.228;2022-11-18T02:04:00;7.50;99.90
336;DHT22;156;48.738;9.228;2022-11-18T02:06:26;7.50;99.90
336;DHT22;156;48.738;9.228;2022-11-18T02:08:55;7.40;99.90
336;DHT22;156;48.738;9.228;2022-11-18T02:11:22;7.40;99.90
336;DHT22;156;48.738;9.228;2022-11-18T02:14:08;7.50;99.90
336;DHT22;156;48.738;9.228;2022-11-18T02:16:48;7.40;99.90
336;DHT22;156;48.738;9.228;2022-11-18T02:19:38;7.50;99.90
336;DHT22;156;48.738;9.228;2022-11-18T02:22:18;7.50;99.90
336;DHT22;156;48.738;9.228;2022-11-18T02:24:57;7.50;99.90
336;DHT22;156;48.738;9.228;2022-11-18T02:27:41;7.50;99.90
336;DHT22;156;48.738;9.228;2022-11-18T02:30:17;7.60;99.90
336;DHT22;156;48.738;9.228;2022-11-18T02:32:51;7.60;99.90
336;DHT22;156;48.738;9.228;2022-11-18T02:35:23;7.70;99.90
336;DHT22;156;48.738;9.228;2022-11-18T02:37:55;7.70;99.90
336;DHT22;156;48.738;9.228;2022-11-18T02:40:26;7.70;99.90
336;DHT22;156;48.738;9.228;2022-11-18T02:42:59;7.80;99.90
336;DHT22;156;48.738;9.228;2022-11-18T02:45:29;7.80;99.90
336;DHT22;156;48.738;9.228;2022-11-18T02:48:00;7.70;99.90
336;DHT22;156;48.738;9.228;2022-11-18T02:50:29;7.80;99.90
336;DHT22;156;48.738;9.228;2022-11-18T02:52:58;7.70;99.90
336;DHT22;156;48.738;9.228;2022-11-18T02:55:29;7.60;99.90
336;DHT22;156;48.738;9.228;2022-11-18T02:57:57;7.60;99.90
336;DHT22;156;48.738;9.228;2022-11-18T03:00:24;7.70;99.90
336;DHT22;156;48.738;9.228;2022-11-18T03:02:53;7.70;99.90
336;DHT22;156;48.738;9.228;2022-11-18T03:05:26;7.80;99.90
336;DHT22;156;48.738;9.228;2022-11-18T03:08:00;7.80;99.90
336;DHT22;156;48.738;9.228;2022-11-18T03:10:35;7.80;99.90
336;DHT22;156;48.738;9.228;2022-11-18T03:13:12;7.70;99.90
336;DHT22;156;48.738;9.228;2022-11-18T03:15:47;7.50;99.90
336;DHT22;156;48.738;9.228;2022-11-18T03:18:20;7.50;99.90
336;DHT22;156;48.738;9.228;2022-11-18T03:20:56;7.40;99.90
336;DHT22;156;48.738;9.228;2022-11-18T03:23:29;7.40;99.90
336;DHT22;156;48.738;9.228;2022-11-18T03:26:00;7.40;99.90
336;DHT22;156;48.738;9.228;2022-11-18T03:28:31;7.40;99.90
336;DHT22;156;48.738;9.228;2022-11-18T03:31:05;7.40;99.90
336;DHT22;156;48.738;9.228;2022-11-18T03:33:38;7.40;99.90
336;DHT22;156;48.738;9.228;2022-11-18T03:36:07;7.40;99.90
336;DHT22;156;48.738;9.228;2022-11-18T03:38:37;7.40;99.90
336;DHT22;156;48.738;9.228;2022-11-18T03:41:08;7.40;99.90
336;DHT22;156;48.738;9.228;2022-11-18T03:43:39;7.40;99.90
336;DHT22;156;48.738;9.228;2022-11-18T03:46:09;7.50;99.90
336;DHT22;156;48.738;9.228;2022-11-18T03:48:42;7.50;99.90
336;DHT22;156;48.738;9.228;2022-11-18T03:51:13;7.30;99.90
336;DHT22;156;48.738;9.228;2022-11-18T03:53:45;7.40;99.90
336;DHT22;156;48.738;9.228;2022-11-18T03:56:16;7.30;99.90
336;DHT22;156;48.738;9.228;2022-11-18T03:58:50;7.20;99.90
336;DHT22;156;48.738;9.228;2022-11-18T04:01:24;7.20;99.90
336;DHT22;156;48.738;9.228;2022-11-18T04:03:55;7.20;99.90
336;DHT22;156;48.738;9.228;2022-11-18T04:06:27;7.20;99.90
336;DHT22;156;48.738;9.228;2022-11-18T04:08:59;7.20;99.90
336;DHT22;156;48.738;9.228;2022-11-18T04:11:31;7.30;99.90
336;DHT22;156;48.738;9.228;2022-11-18T04:14:18;7.20;99.90
336;DHT22;156;48.738;9.228;2022-11-18T04:16:49;7.10;99.90
336;DHT22;156;48.738;9.228;2022-11-18T04:19:18;7.10;99.90
336;DHT22;156;48.738;9.228;2022-11-18T04:21:45;7.10;99.90
336;DHT22;156;48.738;9.228;2022-11-18T04:24:13;7.00;99.90
336;DHT22;156;48.738;9.228;2022-11-18T04:26:40;7.00;99.90
336;DHT22;156;48.738;9.228;2022-11-18T04:29:07;7.00;99.90
336;DHT22;156;48.738;9.228;2022-11-18T04:31:34;7.10;99.90
336;DHT22;156;48.738;9.228;2022-11-18T04:34:01;7.20;99.90
336;DHT22;156;48.738;9.228;2022-11-18T04:36:29;7.10;99.90
336;DHT22;156;48.738;9.228;2022-11-18T04:38:56;7.10;99.90
336;DHT22;156;48.738;9.228;2022-11-18T04:41:22;7.00;99.90
336;DHT22;156;48.738;9.228;2022-11-18T04:44:09;6.90;99.90
336;DHT22;156;48.738;9.228;2022-11-18T04:46:39;6.90;99.90
336;DHT22;156;48.738;9.228;2022-11-18T04:49:06;6.90;99.90
336;DHT22;156;48.738;9.228;2022-11-18T04:51:34;6.80;99.90
336;DHT22;156;48.738;9.228;2022-11-18T04:54:02;6.80;99.90
336;DHT22;156;48.738;9.228;2022-11-18T04:56:29;6.80;99.90
336;DHT22;156;48.738;9.228;2022-11-18T04:58:57;6.70;99.90
336;DHT22;156;48.738;9.228;2022-11-18T05:01:24;6.70;99.90
336;DHT22;156;48.738;9.228;2022-11-18T05:03:51;6.70;99.90
336;DHT22;156;48.738;9.228;2022-11-18T05:06:18;6.60;99.90
336;DHT22;156;48.738;9.228;2022-11-18T05:08:47;6.80;99.90
336;DHT22;156;48.738;9.228;2022-11-18T05:11:14;6.80;99.90
336;DHT22;156;48.738;9.228;2022-11-18T05:13:58;6.90;99.90
336;DHT22;156;48.738;9.228;2022-11-18T05:16:25;6.90;99.90
336;DHT22;156;48.738;9.228;2022-11-18T05:18:52;6.90;99.90
336;DHT22;156;48.738;9.228;2022-11-18T05:21:19;6.90;99.90
336;DHT22;156;48.738;9.228;2022-11-18T05:23:47;6.80;99.90
336;DHT22;156;48.738;9.228;2022-11-18T05:26:14;6.70;99.90
336;DHT22;156;48.738;9.228;2022-11-18T05:28:41;6.70;99.90
336;DHT22;156;48.738;9.228;2022-11-18T05:31:09;6.70;99.90
336;DHT22;156;48.738;9.228;2022-11-18T05:33:36;6.70;99.90
336;DHT22;156;48.738;9.228;2022-11-18T05:36:04;6.60;99.90
336;DHT22;156;48.738;9.228;2022-11-18T05:38:31;6.60;99.90
336;DHT22;156;48.738;9.228;2022-11-18T05:41:00;6.70;99.90
336;DHT22;156;48.738;9.228;2022-11-18T05:43:27;6.70;99.90
336;DHT22;156;48.738;9.228;2022-11-18T05:45:53;6.80;99.90
336;DHT22;156;48.738;9.228;2022-11-18T05:48:20;6.80;99.90
336;DHT22;156;48.738;9.228;2022-11-18T05:50:48;6.80;99.90
336;DHT22;156;48.738;9.228;2022-11-18T05:53:17;6.80;99.90
336;DHT22;156;48.738;9.228;2022-11-18T05:55:50;6.70;99.90
336;DHT22;156;48.738;9.228;2022-11-18T06:00:49;6.70;99.90
336;DHT22;156;48.738;9.228;2022-11-18T06:03:21;6.70;99.90
336;DHT22;156;48.738;9.228;2022-11-18T06:05:49;6.60;99.90
336;DHT22;156;48.738;9.228;2022-11-18T06:08:18;6.60;99.90
336;DHT22;156;48.738;9.228;2022-11-18T06:10:47;6.50;99.90
336;DHT22;156;48.738;9.228;2022-11-18T06:13:16;6.50;99.90
336;DHT22;156;48.738;9.228;2022-11-18T06:15:45;6.50;99.90
336;DHT22;156;48.738;9.228;2022-11-18T06:18:18;6.50;99.90
336;DHT22;156;48.738;9.228;2022-11-18T06:20:46;6.50;99.90
336;DHT22;156;48.738;9.228;2022-11-18T06:23:13;6.50;99.90
336;DHT22;156;48.738;9.228;2022-11-18T06:25:41;6.50;99.90
336;DHT22;156;48.738;9.228;2022-11-18T06:28:09;6.50;99.90
336;DHT22;156;48.738;9.228;2022-11-18T06:30:37;6.60;99.90
336;DHT22;156;48.738;9.228;2022-11-18T06:33:05;6.70;99.90
336;DHT22;156;48.738;9.228;2022-11-18T06:35:33;6.70;99.90
336;DHT22;156;48.738;9.228;2022-11-18T06:38:00;6.70;99.90
336;DHT22;156;48.738;9.228;2022-11-18T06:40:27;6.70;99.90
336;DHT22;156;48.738;9.228;2022-11-18T06:42:53;6.70;99.90
336;DHT22;156;48.738;9.228;2022-11-18T06:45:38;6.80;99.90
336;DHT22;156;48.738;9.228;2022-11-18T06:48:26;6.70;99.90
336;DHT22;156;48.738;9.228;2022-11-18T06:50:52;6.70;99.90
336;DHT22;156;48.738;9.228;2022-11-18T06:53:19;6.80;99.90
336;DHT22;156;48.738;9.228;2022-11-18T06:55:49;6.80;99.90
336;DHT22;156;48.738;9.228;2022-11-18T06:58:16;6.80;99.90
336;DHT22;156;48.738;9.228;2022-11-18T07:00:45;6.80;99.90
336;DHT22;156;48.738;9.228;2022-11-18T07:03:12;6.70;99.90
336;DHT22;156;48.738;9.228;2022-11-18T07:05:40;6.80;99.90
336;DHT22;156;48.738;9.228;2022-11-18T07:08:07;6.70;99.90
336;DHT22;156;48.738;9.228;2022-11-18T07:13:01;6.80;99.90
336;DHT22;156;48.738;9.228;2022-11-18T07:15:28;6.90;99.90
336;DHT22;156;48.738;9.228;2022-11-18T07:17:55;6.90;99.90
336;DHT22;156;48.738;9.228;2022-11-18T07:20:22;6.90;99.90
336;DHT22;156;48.738;9.228;2022-11-18T07:22:52;7.00;99.90
336;DHT22;156;48.738;9.228;2022-11-18T07:25:19;7.00;99.90
336;DHT22;156;48.738;9.228;2022-11-18T07:27:46;7.00;99.90
336;DHT22;156;48.738;9.228;2022-11-18T07:30:13;7.00;99.90
336;DHT22;156;48.738;9.228;2022-11-18T07:32:40;7.00;99.90
336;DHT22;156;48.738;9.228;2022-11-18T07:35:08;7.00;99.90
336;DHT22;156;48.738;9.228;2022-11-18T07:37:35;7.00;99.90
336;DHT22;156;48.738;9.228;2022-11-18T07:40:04;7.00;99.90
336;DHT22;156;48.738;9.228;2022-11-18T07:42:31;7.00;99.90
336;DHT22;156;48.738;9.228;2022-11-18T07:45:08;7.10;99.90
336;DHT22;156;48.738;9.228;2022-11-18T07:47:35;7.00;99.90
336;DHT22;156;48.738;9.228;2022-11-18T07:50:03;7.00;99.90
336;DHT22;156;48.738;9.228;2022-11-18T07:52:30;7.00;99.90
336;DHT22;156;48.738;9.228;2022-11-18T07:54:57;6.90;99.90
336;DHT22;156;48.738;9.228;2022-11-18T07:57:25;7.00;99.90
336;DHT22;156;48.738;9.228;2022-11-18T07:59:52;6.90;99.90
336;DHT22;156;48.738;9.228;2022-11-18T08:02:19;6.90;99.90
336;DHT22;156;48.738;9.228;2022-11-18T08:04:46;6.80;99.90
336;DHT22;156;48.738;9.228;2022-11-18T08:07:13;6.90;99.90
336;DHT22;156;48.738;9.228;2022-11-18T08:09:40;6.80;99.90
336;DHT22;156;48.738;9.228;2022-11-18T08:12:06;6.80;99.90
336;DHT22;156;48.738;9.228;2022-11-18T08:14:35;6.80;99.90
336;DHT22;156;48.738;9.228;2022-11-18T08:17:02;6.80;99.90
336;DHT22;156;48.738;9.228;2022-11-18T08:19:29;6.80;99.90
336;DHT22;156;48.738;9.228;2022-11-18T08:21:56;6.80;99.90
336;DHT22;156;48.738;9.228;2022-11-18T08:24:23;6.80;99.90
336;DHT22;156;48.738;9.228;2022-11-18T08:26:49;6.80;99.90
336;DHT22;156;48.738;9.228;2022-11-18T08:29:16;6.80;99.90
336;DHT22;156;48.738;9.228;2022-11-18T08:31:45;6.80;99.90
336;DHT22;156;48.738;9.228;2022-11-18T08:34:12;6.80;99.90
336;DHT22;156;48.738;9.228;2022-11-18T08:36:39;6.90;99.90
336;DHT22;156;48.738;9.228;2022-11-18T08:39:07;6.80;99.90
336;DHT22;156;48.738;9.228;2022-11-18T08:41:36;6.80;99.90
336;DHT22;156;48.738;9.228;2022-11-18T08:44:04;6.80;99.90
336;DHT22;156;48.738;9.228;2022-11-18T08:46:31;6.80;99.90
336;DHT22;156;48.738;9.228;2022-11-18T08:48:59;6.80;99.90
336;DHT22;156;48.738;9.228;2022-11-18T08:51:26;6.80;99.90
336;DHT22;156;48.738;9.228;2022-11-18T08:53:53;6.80;99.90
336;DHT22;156;48.738;9.228;2022-11-18T08:56:22;6.80;99.90
336;DHT22;156;48.738;9.228;2022-11-18T08:58:49;6.80;99.90
336;DHT22;156;48.738;9.228;2022-11-18T09:01:16;6.80;99.90
336;DHT22;156;48.738;9.228;2022-11-18T09:03:43;6.80;99.90
336;DHT22;156;48.738;9.228;2022-11-18T09:06:15;6.80;99.90
336;DHT22;156;48.738;9.228;2022-11-18T09:08:43;6.90;99.90
336;DHT22;156;48.738;9.228;2022-11-18T09:11:11;6.90;99.90
336;DHT22;156;48.738;9.228;2022-11-18T09:13:39;6.90;99.90
336;DHT22;156;48.738;9.228;2022-11-18T09:16:06;7.00;99.90
336;DHT22;156;48.738;9.228;2022-11-18T09:18:34;7.00;99.90
336;DHT22;156;48.738;9.228;2022-11-18T09:21:02;7.00;99.90
336;DHT22;156;48.738;9.228;2022-11-18T09:23:31;7.00;99.90
336;DHT22;156;48.738;9.228;2022-11-18T09:26:00;7.00;99.90
336;DHT22;156;48.738;9.228;2022-11-18T09:28:27;7.10;99.90
336;DHT22;156;48.738;9.228;2022-11-18T09:30:54;7.20;99.90
336;DHT22;156;48.738;9.228;2022-11-18T09:33:21;7.20;99.90
336;DHT22;156;48.738;9.228;2022-11-18T09:35:48;7.20;99.90
336;DHT22;156;48.738;9.228;2022-11-18T09:38:15;7.20;99.90
336;DHT22;156;48.738;9.228;2022-11-18T09:40:51;7.20;99.90
336;DHT22;156;48.738;9.228;2022-11-18T09:43:24;7.30;99.90
336;DHT22;156;48.738;9.228;2022-11-18T09:45:57;7.40;99.90
336;DHT22;156;48.738;9.228;2022-11-18T09:48:27;7.50;99.90
336;DHT22;156;48.738;9.228;2022-11-18T09:51:08;7.50;99.90
336;DHT22;156;48.738;9.228;2022-11-18T09:53:39;7.60;99.90
336;DHT22;156;48.738;9.228;2022-11-18T09:56:12;7.60;99.90
336;DHT22;156;48.738;9.228;2022-11-18T09:58:40;7.60;99.90
336;DHT22;156;48.738;9.228;2022-11-18T10:01:11;7.50;99.90
336;DHT22;156;48.738;9.228;2022-11-18T10:03:39;7.70;99.90
336;DHT22;156;48.738;9.228;2022-11-18T10:06:17;7.80;99.90
336;DHT22;156;48.738;9.228;2022-11-18T10:08:56;7.80;99.90
336;DHT22;156;48.738;9.228;2022-11-18T10:11:30;7.80;99.90
336;DHT22;156;48.738;9.228;2022-11-18T10:14:09;7.80;99.90
336;DHT22;156;48.738;9.228;2022-11-18T10:16:44;7.80;99.90
336;DHT22;156;48.738;9.228;2022-11-18T10:19:23;7.80;99.90
336;DHT22;156;48.738;9.228;2022-11-18T10:22:05;7.90;99.90
336;DHT22;156;48.738;9.228;2022-11-18T10:24:40;8.00;99.90
336;DHT22;156;48.738;9.228;2022-11-18T10:27:11;7.80;99.90
336;DHT22;156;48.738;9.228;2022-11-18T10:29:38;7.80;99.90
336;DHT22;156;48.738;9.228;2022-11-18T10:32:07;7.80;99.90
336;DHT22;156;48.738;9.228;2022-11-18T10:34:43;8.00;99.90
336;DHT22;156;48.738;9.228;2022-11-18T10:37:21;8.10;99.90
336;DHT22;156;48.738;9.228;2022-11-18T10:39:49;8.10;99.90
336;DHT22;156;48.738;9.228;2022-11-18T10:42:24;8.20;99.90
336;DHT22;156;48.738;9.228;2022-11-18T10:44:52;8.20;99.90
336;DHT22;156;48.738;9.228;2022-11-18T10:47:25;8.20;99.90
336;DHT22;156;48.738;9.228;2022-11-18T10:49:55;8.20;99.90
336;DHT22;156;48.738;9.228;2022-11-18T10:52:22;8.20;99.90
336;DHT22;156;48.738;9.228;2022-11-18T10:55:19;8.20;99.90
336;DHT22;156;48.738;9.228;2022-11-18T10:57:50;8.20;99.90
336;DHT22;156;48.738;9.228;2022-11-18T11:00:36;8.40;99.90
336;DHT22;156;48.738;9.228;2022-11-18T11:03:28;8.30;99.90
336;DHT22;156;48.738;9.228;2022-11-18T11:06:26;8.40;99.90
336;DHT22;156;48.738;9.228;2022-11-18T11:08:56;8.40;99.90
336;DHT22;156;48.738;9.228;2022-11-18T11:11:25;8.30;99.90
336;DHT22;156;48.738;9.228;2022-11-18T11:14:20;8.40;99.90
336;DHT22;156;48.738;9.228;2022-11-18T11:16:55;8.30;99.90
336;DHT22;156;48.738;9.228;2022-11-18T11:19:26;8.30;99.90
336;DHT22;156;48.738;9.228;2022-11-18T11:21:53;8.30;99.90
336;DHT22;156;48.738;9.228;2022-11-18T11:24:25;8.30;99.90
336;DHT22;156;48.738;9.228;2022-11-18T11:26:59;8.30;99.90
336;DHT22;156;48.738;9.228;2022-11-18T11:29:55;8.40;99.90
336;DHT22;156;48.738;9.228;2022-11-18T11:32:29;8.50;99.90
336;DHT22;156;48.738;9.228;2022-11-18T11:35:03;8.30;99.90
336;DHT22;156;48.738;9.228;2022-11-18T11:37:45;8.10;99.90
336;DHT22;156;48.738;9.228;2022-11-18T11:40:24;8.10;99.90
336;DHT22;156;48.738;9.228;2022-11-18T11:43:09;8.10;99.90
336;DHT22;156;48.738;9.228;2022-11-18T11:45:50;8.10;99.90
336;DHT22;156;48.738;9.228;2022-11-18T11:48:28;8.20;99.90
336;DHT22;156;48.738;9.228;2022-11-18T11:51:03;8.30;99.90
336;DHT22;156;48.738;9.228;2022-11-18T11:56:48;8.30;99.90
336;DHT22;156;48.738;9.228;2022-11-18T11:59:26;8.30;99.90
336;DHT22;156;48.738;9.228;2022-11-18T12:02:03;8.20;99.90
336;DHT22;156;48.738;9.228;2022-11-18T12:04:41;8.20;99.90
336;DHT22;156;48.738;9.228;2022-11-18T12:07:14;8.30;99.90
336;DHT22;156;48.738;9.228;2022-11-18T12:10:01;8.20;94.50
336;DHT22;156;48.738;9.228;2022-11-18T12:12:33;8.20;99.60
336;DHT22;156;48.738;9.228;2022-11-18T12:15:12;8.20;98.70
336;DHT22;156;48.738;9.228;2022-11-18T12:17:47;8.20;99.90
336;DHT22;156;48.738;9.228;2022-11-18T12:20:35;8.10;98.70
336;DHT22;156;48.738;9.228;2022-11-18T12:23:11;8.00;98.30
336;DHT22;156;48.738;9.228;2022-11-18T12:26:00;7.90;80.60
336;DHT22;156;48.738;9.228;2022-11-18T12:28:39;8.00;90.50
336;DHT22;156;48.738;9.228;2022-11-18T12:31:32;7.90;93.90
336;DHT22;156;48.738;9.228;2022-11-18T12:34:04;7.80;96.00
336;DHT22;156;48.738;9.228;2022-11-18T12:36:42;7.70;99.90
336;DHT22;156;48.738;9.228;2022-11-18T12:42:39;7.60;99.90
336;DHT22;156;48.738;9.228;2022-11-18T12:45:57;7.60;99.90
336;DHT22;156;48.738;9.228;2022-11-18T12:48:35;7.50;99.90
336;DHT22;156;48.738;9.228;2022-11-18T12:53:56;7.50;99.90
336;DHT22;156;48.738;9.228;2022-11-18T12:56:26;7.60;99.90
336;DHT22;156;48.738;9.228;2022-11-18T12:58:54;7.60;99.90
336;DHT22;156;48.738;9.228;2022-11-18T13:01:23;7.60;99.90
336;DHT22;156;48.738;9.228;2022-11-18T13:03:51;7.60;99.90
336;DHT22;156;48.738;9.228;2022-11-18T13:06:23;7.60;99.90
336;DHT22;156;48.738;9.228;2022-11-18T13:08:53;7.70;99.90
336;DHT22;156;48.738;9.228;2022-11-18T13:11:21;7.80;99.90
336;DHT22;156;48.738;9.228;2022-11-18T13:14:14;7.80;99.90
336;DHT22;156;48.738;9.228;2022-11-18T13:16:59;7.90;99.90
336;DHT22;156;48.738;9.228;2022-11-18T13:19:53;8.10;99.90
336;DHT22;156;48.738;9.228;2022-11-18T13:22:22;8.10;99.90
336;DHT22;156;48.738;9.228;2022-11-18T13:25:22;8.20;99.90
336;DHT22;156;48.738;9.228;2022-11-18T13:27:54;8.20;99.90
336;DHT22;156;48.738;9.228;2022-11-18T13:30:23;8.30;97.70
336;DHT22;156;48.738;9.228;2022-11-18T13:32:52;8.20;95.40
336;DHT22;156;48.738;9.228;2022-11-18T13:35:22;8.30;98.40
336;DHT22;156;48.738;9.228;2022-11-18T13:37:54;8.30;96.50
336;DHT22;156;48.738;9.228;2022-11-18T13:40:24;8.30;91.20
336;DHT22;156;48.738;9.228;2022-11-18T13:42:51;8.20;91.80
336;DHT22;156;48.738;9.228;2022-11-18T13:45:19;8.30;97.80
336;DHT22;156;48.738;9.228;2022-11-18T13:47:50;8.30;97.60
336;DHT22;156;48.738;9.228;2022-11-18T13:50:22;8.60;86.30
336;DHT22;156;48.738;9.228;2022-11-18T13:53:02;8.90;68.00
336;DHT22;156;48.738;9.228;2022-11-18T13:55:35;9.20;65.80
336;DHT22;156;48.738;9.228;2022-11-18T13:58:05;9.30;45.00
336;DHT22;156;48.738;9.228;2022-11-18T14:00:34;9.00;45.70
336;DHT22;156;48.738;9.228;2022-11-18T14:03:03;8.80;35.50
336;DHT22;156;48.738;9.228;2022-11-18T14:05:31;8.70;40.60
336;DHT22;156;48.738;9.228;2022-11-18T14:08:02;8.80;39.20
336;DHT22;156;48.738;9.228;2022-11-18T14:10:33;8.80;30.90
336;DHT22;156;48.738;9.228;2022-11-18T14:13:16;8.60;34.10
336;DHT22;156;48.738;9.228;2022-11-18T14:15:43;8.60;34.80
336;DHT22;156;48.738;9.228;2022-11-18T14:18:18;8.60;34.40
336;DHT22;156;48.738;9.228;2022-11-18T14:20:50;8.70;38.90
336;DHT22;156;48.738;9.228;2022-11-18T14:23:21;8.80;29.60
336;DHT22;156;48.738;9.228;2022-11-18T14:25:51;8.80;21.10
336;DHT22;156;48.738;9.228;2022-11-18T14:28:20;8.80;17.00
336;DHT22;156;48.738;9.228;2022-11-18T14:30:57;8.90;17.50
336;DHT22;156;48.738;9.228;2022-11-18T14:33:25;8.80;17.80
336;DHT22;156;48.738;9.228;2022-11-18T14:35:55;8.90;12.10
336;DHT22;156;48.738;9.228;2022-11-18T14:38:35;8.90;13.70
336;DHT22;156;48.738;9.228;2022-11-18T14:41:06;9.10;13.80
336;DHT22;156;48.738;9.228;2022-11-18T14:43:33;9.10;11.00
336;DHT22;156;48.738;9.228;2022-11-18T14:46:03;9.00;5.40
336;DHT22;156;48.738;9.228;2022-11-18T14:48:31;8.90;8.80
336;DHT22;156;48.738;9.228;2022-11-18T14:50:59;9.00;6.70
336;DHT22;156;48.738;9.228;2022-11-18T14:53:27;8.90;3.40
336;DHT22;156;48.738;9.228;2022-11-18T14:55:56;8.80;5.20
336;DHT22;156;48.738;9.228;2022-11-18T14:58:24;8.70;5.10
336;DHT22;156;48.738;9.228;2022-11-18T15:00:51;8.80;6.90
336;DHT22;156;48.738;9.228;2022-11-18T15:03:18;8.60;9.80
336;DHT22;156;48.738;9.228;2022-11-18T15:05:45;8.60;10.00
336;DHT22;156;48.738;9.228;2022-11-18T15:08:12;8.50;13.40
336;DHT22;156;48.738;9.228;2022-11-18T15:10:42;8.40;9.30
336;DHT22;156;48.738;9.228;2022-11-18T15:13:09;8.30;13.50
336;DHT22;156;48.738;9.228;2022-11-18T15:15:36;8.30;17.00
336;DHT22;156;48.738;9.228;2022-11-18T15:18:02;8.30;17.80
336;DHT22;156;48.738;9.228;2022-11-18T15:20:30;8.20;21.30
336;DHT22;156;48.738;9.228;2022-11-18T15:22:56;8.20;21.30
336;DHT22;156;48.738;9.228;2022-11-18T15:25:23;8.20;20.80
336;DHT22;156;48.738;9.228;2022-11-18T15:27:51;8.10;26.20
336;DHT22;156;48.738;9.228;2022-11-18T15:30:18;8.10;26.40
336;DHT22;156;48.738;9.228;2022-11-18T15:32:45;8.00;27.10
336;DHT22;156;48.738;9.228;2022-11-18T15:35:12;8.10;27.00
336;DHT22;156;48.738;9.228;2022-11-18T15:37:40;8.10;29.10
336;DHT22;156;48.738;9.228;2022-11-18T15:40:07;8.10;31.00
336;DHT22;156;48.738;9.228;2022-11-18T15:42:35;8.10;33.70
336;DHT22;156;48.738;9.228;2022-11-18T15:45:04;8.10;34.70
336;DHT22;156;48.738;9.228;2022-11-18T15:47:31;8.10;37.40
336;DHT22;156;48.738;9.228;2022-11-18T15:49:58;8.10;32.80
336;DHT22;156;48.738;9.228;2022-11-18T15:52:25;8.20;32.10
336;DHT22;156;48.738;9.228;2022-11-18T15:54:53;8.10;33.70
336;DHT22;156;48.738;9.228;2022-11-18T15:57:20;8.10;31.20
336;DHT22;156;48.738;9.228;2022-11-18T15:59:46;8.10;33.70
336;DHT22;156;48.738;9.228;2022-11-18T16:02:15;8.10;33.90
336;DHT22;156;48.738;9.228;2022-11-18T16:04:42;8.10;32.20
336;DHT22;156;48.738;9.228;2022-11-18T16:07:09;8.10;33.60
336;DHT22;156;48.738;9.228;2022-11-18T16:09:36;8.10;38.20
336;DHT22;156;48.738;9.228;2022-11-18T16:12:20;8.20;34.00
336;DHT22;156;48.738;9.228;2022-11-18T16:15:05;8.20;33.70
336;DHT22;156;48.738;9.228;2022-11-18T16:17:50;8.20;33.80
336;DHT22;156;48.738;9.228;2022-11-18T16:20:17;8.20;32.80
336;DHT22;156;48.738;9.228;2022-11-18T16:22:44;8.20;35.50
336;DHT22;156;48.738;9.228;2022-11-18T16:25:12;8.20;37.70
336;DHT22;156;48.738;9.228;2022-11-18T16:27:39;8.20;24.00
336;DHT22;156;48.738;9.228;2022-11-18T16:30:06;8.20;23.30
336;DHT22;156;48.738;9.228;2022-11-18T16:32:55;8.20;22.20
336;DHT22;156;48.738;9.228;2022-11-18T16:35:21;8.10;21.10
336;DHT22;156;48.738;9.228;2022-11-18T16:37:47;8.10;24.20
336;DHT22;156;48.738;9.228;2022-11-18T16:40:15;8.10;19.50
336;DHT22;156;48.738;9.228;2022-11-18T16:42:42;8.10;20.10
336;DHT22;156;48.738;9.228;2022-11-18T16:45:09;8.10;21.20
336;DHT22;156;48.738;9.228;2022-11-18T16:47:37;8.00;23.80
336;DHT22;156;48.738;9.228;2022-11-18T16:50:06;8.00;24.60
336;DHT22;156;48.738;9.228;2022-11-18T16:52:33;8.00;25.10
336;DHT22;156;48.738;9.228;2022-11-18T16:55:00;8.10;16.80
336;DHT22;156;48.738;9.228;2022-11-18T16:57:27;8.10;17.10
336;DHT22;156;48.738;9.228;2022-11-18T16:59:55;8.10;13.20
336;DHT22;156;48.738;9.228;2022-11-18T17:02:26;8.10;9.70
336;DHT22;156;48.738;9.228;2022-11-18T17:04:54;8.00;13.10
336;DHT22;156;48.738;9.228;2022-11-18T20:15:17;7.40;51.00
336;DHT22;156;48.738;9.228;2022-11-18T20:21:40;7.30;52.40
336;DHT22;156;48.738;9.228;2022-11-18T20:24:28;8.60;58.20
336;DHT22;156;48.738;9.228;2022-11-18T20:27:15;7.90;55.80
336;DHT22;156;48.738;9.228;2022-11-18T20:30:19;6.80;53.80
336;DHT22;156;48.738;9.228;2022-11-18T20:33:16;6.80;52.20
336;DHT22;156;48.738;9.228;2022-11-18T20:39:14;7.00;51.00
336;DHT22;156;48.738;9.228;2022-11-18T20:41:41;6.90;45.40
336;DHT22;156;48.738;9.228;2022-11-18T20:44:36;6.80;44.20
336;DHT22;156;48.738;9.228;2022-11-18T20:47:07;7.00;46.20
336;DHT22;156;48.738;9.228;2022-11-18T20:49:40;6.70;48.70